createdAt,value
2018-07-08T00:00:36.950Z,21.09
2018-07-08T00:01:47.013Z,21.11
2018-07-08T00:02:57.094Z,21.11
2018-07-08T00:04:07.153Z,21.11
2018-07-08T00:05:16.694Z,21.08
2018-07-08T00:06:26.502Z,21.06
2018-07-08T00:07:36.572Z,21.12
2018-07-08T00:08:46.647Z,21.16
2018-07-08T00:09:56.466Z,21.06
2018-07-08T00:11:06.548Z,21.06
2018-07-08T00:12:16.390Z,21.13
2018-07-08T00:13:26.209Z,21.16
2018-07-08T00:14:36.277Z,21.19
2018-07-08T00:15:46.360Z,21.15
2018-07-08T00:16:56.423Z,21.22
2018-07-08T00:18:06.536Z,21.25
2018-07-08T00:19:16.615Z,21.19
2018-07-08T00:20:26.704Z,21.22
2018-07-08T00:21:36.796Z,21.22
2018-07-08T00:22:46.619Z,21.21
2018-07-08T00:23:56.682Z,21.19
2018-07-08T00:25:06.761Z,21.31
2018-07-08T00:26:16.834Z,21.36
2018-07-08T00:27:26.901Z,21.31
2018-07-08T00:28:36.710Z,21.3
2018-07-08T00:29:46.522Z,21.36
2018-07-08T00:30:56.613Z,21.28
2018-07-08T00:32:06.692Z,21.28
2018-07-08T00:33:16.502Z,21.23
2018-07-08T00:34:26.320Z,21.19
2018-07-08T00:35:36.142Z,21.19
2018-07-08T00:36:45.954Z,21.23
2018-07-08T00:37:55.824Z,21.25
2018-07-08T00:39:05.900Z,21.21
2018-07-08T00:40:15.700Z,21.19
2018-07-08T00:41:25.780Z,21.22
2018-07-08T00:42:35.859Z,21.21
2018-07-08T00:43:45.939Z,21.25
2018-07-08T00:44:56.006Z,21.22
2018-07-08T00:46:05.815Z,21.21
2018-07-08T00:47:16.105Z,21.21
2018-07-08T00:48:26.177Z,21.22
2018-07-08T00:49:36.254Z,21.23
2018-07-08T00:50:46.331Z,21.27
2018-07-08T00:51:56.399Z,21.23
2018-07-08T00:53:06.483Z,21.21
2018-07-08T00:54:16.576Z,21.22
2018-07-08T00:55:26.387Z,21.23
2018-07-08T00:56:36.461Z,21.16
2018-07-08T00:57:46.026Z,21.23
2018-07-08T00:58:55.891Z,21.18
2018-07-08T01:00:06.033Z,21.16
2018-07-08T01:01:16.123Z,21.16
2018-07-08T01:02:26.195Z,21.21
2018-07-08T01:03:35.999Z,21.09
2018-07-08T01:04:46.086Z,21.04
2018-07-08T01:05:55.904Z,21.12
2018-07-08T01:07:05.971Z,21.09
2018-07-08T01:08:16.039Z,21.13
2018-07-08T01:09:25.863Z,21.08
2018-07-08T01:10:35.721Z,21.03
2018-07-08T01:11:45.812Z,21.06
2018-07-08T01:12:55.882Z,21.06
2018-07-08T01:14:05.953Z,21.08
2018-07-08T01:15:15.749Z,21.04
2018-07-08T01:16:25.839Z,20.94
2018-07-08T01:17:35.917Z,20.94
2018-07-08T01:18:45.995Z,20.93
2018-07-08T01:19:56.073Z,20.86
2018-07-08T01:21:05.886Z,20.93
2018-07-08T01:22:16.028Z,20.88
2018-07-08T01:23:25.840Z,20.88
2018-07-08T01:24:35.389Z,20.85
2018-07-08T01:25:45.468Z,20.82
2018-07-08T01:26:55.280Z,20.82
2018-07-08T01:28:05.373Z,20.78
2018-07-08T01:29:15.459Z,20.78
2018-07-08T01:30:25.549Z,20.79
2018-07-08T01:31:35.621Z,20.74
2018-07-08T01:32:45.488Z,20.72
2018-07-08T01:33:55.564Z,20.71
2018-07-08T01:35:05.675Z,20.71
2018-07-08T01:36:15.737Z,20.61
2018-07-08T01:37:25.810Z,20.57
2018-07-08T01:38:35.873Z,20.51
2018-07-08T01:39:45.959Z,20.44
2018-07-08T01:40:56.015Z,20.56
2018-07-08T01:42:05.832Z,20.49
2018-07-08T01:43:15.924Z,20.42
2018-07-08T01:44:25.846Z,20.46
2018-07-08T01:45:36.193Z,20.35
2018-07-08T01:46:46.291Z,20.37
2018-07-08T01:47:56.111Z,20.4
2018-07-08T01:49:06.202Z,20.4
2018-07-08T01:50:16.275Z,20.4
2018-07-08T01:51:26.396Z,20.34
2018-07-08T01:52:36.459Z,20.41
2018-07-08T01:53:46.528Z,20.26
2018-07-08T01:54:56.612Z,20.27
2018-07-08T01:56:06.418Z,20.2
2018-07-08T01:57:16.498Z,20.27
2018-07-08T01:58:26.313Z,20.22
2018-07-08T01:59:36.138Z,20.26
2018-07-08T02:00:46.223Z,20.26
2018-07-08T02:01:56.289Z,20.2
2018-07-08T02:03:06.354Z,20.25
2018-07-08T02:04:16.159Z,20.22
2018-07-08T02:05:25.957Z,20.22
2018-07-08T02:06:36.041Z,20.18
2018-07-08T02:07:46.125Z,20.2
2018-07-08T02:08:56.259Z,20.2
2018-07-08T02:10:06.337Z,20.27
2018-07-08T02:11:16.149Z,20.22
2018-07-08T02:12:26.227Z,20.26
2018-07-08T02:13:36.306Z,20.26
2018-07-08T02:14:46.409Z,20.25
2018-07-08T02:15:56.476Z,20.29
2018-07-08T02:17:06.562Z,20.29
2018-07-08T02:18:16.653Z,20.22
2018-07-08T02:19:26.202Z,20.11
2018-07-08T02:20:36.004Z,20.16
2018-07-08T02:21:46.147Z,20.19
2018-07-08T02:22:55.722Z,20.19
2018-07-08T02:24:05.950Z,20.07
2018-07-08T02:25:16.027Z,20.19
2018-07-08T02:26:26.395Z,20.15
2018-07-08T02:27:36.796Z,20.11
2018-07-08T02:28:46.884Z,20.15
2018-07-08T02:29:57.312Z,20.1
2018-07-08T02:31:07.395Z,20.11
2018-07-08T02:32:17.463Z,20.1
2018-07-08T02:33:27.293Z,20.04
2018-07-08T02:34:37.383Z,20.04
2018-07-08T02:35:47.463Z,20.08
2018-07-08T02:36:57.547Z,20.02
2018-07-08T02:38:08.304Z,20.08
2018-07-08T02:39:18.414Z,20.02
2018-07-08T02:40:28.218Z,20.04
2018-07-08T02:41:38.039Z,20.05
2018-07-08T02:42:48.117Z,20.02
2018-07-08T02:43:58.243Z,20.11
2018-07-08T02:45:08.117Z,20.04
2018-07-08T02:46:18.179Z,20
2018-07-08T02:47:28.261Z,20
2018-07-08T02:48:38.352Z,20.07
2018-07-08T02:49:48.176Z,20.07
2018-07-08T02:50:58.249Z,20.04
2018-07-08T02:52:08.342Z,20.12
2018-07-08T02:53:18.424Z,20.11
2018-07-08T02:54:28.494Z,20
2018-07-08T02:55:38.556Z,20.05
2018-07-08T02:56:48.387Z,20.01
2018-07-08T02:57:58.470Z,20.07
2018-07-08T02:59:08.276Z,20.12
2018-07-08T03:00:18.352Z,20.18
2018-07-08T03:01:28.484Z,20.08
2018-07-08T03:02:38.547Z,20.19
2018-07-08T03:03:48.359Z,20.18
2018-07-08T03:35:53.817Z,18.61
2018-07-08T03:37:03.891Z,18.59
2018-07-08T03:38:13.965Z,18.61
2018-07-08T03:39:24.024Z,18.69
2018-07-08T03:40:34.097Z,18.71
2018-07-08T03:41:44.280Z,18.82
2018-07-08T03:42:54.369Z,18.81
2018-07-08T03:44:04.436Z,18.96
2018-07-08T03:45:14.503Z,19.1
2018-07-08T03:46:24.581Z,19.24
2018-07-08T03:47:34.646Z,19.31
2018-07-08T03:48:44.449Z,19.47
2018-07-08T03:49:54.255Z,19.67
2018-07-08T03:51:04.322Z,19.79
2018-07-08T03:52:14.126Z,19.9
2018-07-08T03:53:24.197Z,20.01
2018-07-08T03:54:34.264Z,20.11
2018-07-08T03:55:44.347Z,20.22
2018-07-08T03:56:54.157Z,20.27
2018-07-08T03:58:03.972Z,20.37
2018-07-08T03:59:14.105Z,20.48
2018-07-08T04:00:23.911Z,20.51
2018-07-08T04:01:34.034Z,20.58
2018-07-08T04:02:44.094Z,20.64
2018-07-08T04:03:53.381Z,20.68
2018-07-08T04:05:03.258Z,20.78
2018-07-08T04:06:13.073Z,20.83
2018-07-08T04:07:22.920Z,20.85
2018-07-08T04:08:32.722Z,20.96
2018-07-08T04:09:42.808Z,21
2018-07-08T04:10:52.869Z,21.01
2018-07-08T04:12:02.929Z,21.13
2018-07-08T04:13:13.006Z,21.18
2018-07-08T04:14:23.089Z,21.18
2018-07-08T04:15:32.630Z,21.37
2018-07-08T04:16:42.436Z,21.4
2018-07-08T04:17:52.512Z,21.49
2018-07-08T04:19:02.306Z,21.51
2018-07-08T04:20:11.859Z,21.61
2018-07-08T04:21:21.937Z,21.59
2018-07-08T04:22:32.055Z,21.67
2018-07-08T04:23:42.128Z,21.76
2018-07-08T04:24:52.238Z,21.68
2018-07-08T04:26:02.325Z,21.9
2018-07-08T04:27:12.400Z,21.92
2018-07-08T04:28:22.257Z,22.04
2018-07-08T04:29:32.333Z,22.18
2018-07-08T04:30:42.410Z,22.16
2018-07-08T04:31:52.223Z,22.29
2018-07-08T04:33:02.292Z,22.71
2018-07-08T04:34:12.362Z,22.88
2018-07-08T04:35:22.172Z,23.07
2018-07-08T04:36:32.241Z,23.21
2018-07-08T04:37:42.065Z,23.19
2018-07-08T04:38:52.124Z,23.18
2018-07-08T04:40:02.178Z,23.22
2018-07-08T04:41:11.986Z,23.41
2018-07-08T04:42:22.063Z,24.33
2018-07-08T04:43:32.171Z,24.7
2018-07-08T04:44:42.235Z,24.3
2018-07-08T04:45:52.055Z,23.96
2018-07-08T04:47:02.133Z,23.75
2018-07-08T04:48:12.208Z,23.62
2018-07-08T04:49:22.632Z,23.57
2018-07-08T04:50:32.768Z,23.84
2018-07-08T04:51:42.945Z,23.66
2018-07-08T04:52:53.021Z,23.56
2018-07-08T04:54:03.087Z,23.63
2018-07-08T04:55:12.883Z,23.48
2018-07-08T04:56:22.956Z,23.6
2018-07-08T04:57:33.082Z,23.53
2018-07-08T04:58:43.168Z,23.57
2018-07-08T04:59:52.990Z,23.62
2018-07-08T05:01:03.161Z,23.67
2018-07-08T05:02:13.319Z,23.7
2018-07-08T05:03:23.381Z,23.79
2018-07-08T05:04:32.930Z,23.75
2018-07-08T05:05:43.005Z,23.77
2018-07-08T05:06:53.094Z,23.78
2018-07-08T05:08:02.930Z,23.75
2018-07-08T05:09:13.162Z,23.62
2018-07-08T05:10:23.230Z,23.59
2018-07-08T05:11:33.036Z,23.57
2018-07-08T05:12:43.133Z,23.5
2018-07-08T05:13:53.224Z,23.38
2018-07-08T05:15:03.304Z,23.26
2018-07-08T05:16:13.123Z,23.25
2018-07-08T05:17:23.176Z,23.19
2018-07-08T05:18:33.237Z,23.15
2018-07-08T05:19:43.309Z,23.09
2018-07-08T05:20:53.146Z,23.09
2018-07-08T05:22:03.463Z,23.01
2018-07-08T05:23:13.283Z,23.03
2018-07-08T05:24:23.352Z,23.01
2018-07-08T05:25:33.417Z,23.1
2018-07-08T05:26:43.219Z,23.06
2018-07-08T05:27:53.345Z,23.03
2018-07-08T05:29:03.426Z,23.03
2018-07-08T05:30:13.247Z,23.01
2018-07-08T05:31:23.311Z,23.09
2018-07-08T05:32:33.389Z,23.14
2018-07-08T05:33:43.451Z,23.16
2018-07-08T05:34:53.272Z,23.19
2018-07-08T05:36:03.354Z,23.26
2018-07-08T05:37:13.429Z,23.41
2018-07-08T05:38:23.295Z,23.55
2018-07-08T05:39:33.373Z,23.52
2018-07-08T05:40:43.455Z,23.64
2018-07-08T05:41:53.526Z,23.78
2018-07-08T05:43:03.092Z,23.89
2018-07-08T05:44:13.156Z,24
2018-07-08T05:45:22.967Z,24.04
2018-07-08T05:46:32.798Z,24.17
2018-07-08T05:47:42.879Z,24.32
2018-07-08T05:48:52.952Z,24.45
2018-07-08T05:50:03.084Z,24.55
2018-07-08T05:51:13.225Z,24.77
2018-07-08T05:52:23.035Z,24.75
2018-07-08T05:53:32.863Z,25.02
2018-07-08T05:54:42.945Z,25.14
2018-07-08T05:55:53.028Z,25.34
2018-07-08T05:57:03.109Z,25.54
2018-07-08T05:58:13.174Z,25.63
2018-07-08T05:59:23.256Z,25.7
2018-07-08T06:00:33.343Z,25.86
2018-07-08T06:01:44.426Z,25.93
2018-07-08T06:02:54.499Z,25.99
2018-07-08T06:04:04.575Z,26.17
2018-07-08T06:05:14.417Z,26.26
2018-07-08T06:06:24.491Z,26.44
2018-07-08T06:07:34.563Z,27.65
2018-07-08T06:08:44.627Z,27.3
2018-07-08T06:09:54.705Z,27.05
2018-07-08T06:11:04.543Z,26.82
2018-07-08T06:12:14.644Z,26.82
2018-07-08T06:13:25.784Z,26.91
2018-07-08T06:14:35.620Z,27.11
2018-07-08T06:15:45.701Z,27.46
2018-07-08T06:16:55.686Z,27.11
2018-07-08T06:18:06.060Z,26.9
2018-07-08T06:19:15.711Z,26.79
2018-07-08T06:20:25.781Z,26.75
2018-07-08T06:21:35.605Z,26.78
2018-07-08T06:22:45.980Z,26.94
2018-07-08T06:23:56.069Z,26.99
2018-07-08T06:25:06.250Z,27.11
2018-07-08T06:26:16.352Z,27.24
2018-07-08T06:27:26.442Z,27.49
2018-07-08T06:28:36.008Z,27.94
2018-07-08T06:29:45.824Z,28.08
2018-07-08T06:30:55.894Z,28.14
2018-07-08T06:32:05.975Z,28.06
2018-07-08T06:33:16.057Z,28.09
2018-07-08T06:34:26.150Z,28.05
2018-07-08T06:35:36.242Z,27.94
2018-07-08T06:36:46.107Z,27.91
2018-07-08T06:37:56.199Z,27.8
2018-07-08T06:39:06.304Z,27.69
2018-07-08T06:40:16.428Z,27.76
2018-07-08T06:41:26.488Z,27.68
2018-07-08T06:42:36.561Z,27.8
2018-07-08T06:43:46.624Z,27.8
2018-07-08T06:44:56.715Z,27.83
2018-07-08T06:46:06.544Z,27.64
2018-07-08T06:47:16.622Z,27.66
2018-07-08T06:48:26.754Z,27.57
2018-07-08T06:49:36.813Z,27.55
2018-07-08T06:50:46.646Z,27.55
2018-07-08T06:51:56.846Z,27.59
2018-07-08T06:53:07.078Z,27.51
2018-07-08T06:54:17.176Z,27.57
2018-07-08T06:55:27.003Z,27.64
2018-07-08T06:56:37.111Z,27.68
2018-07-08T06:57:46.994Z,27.69
2018-07-08T06:58:57.160Z,27.68
2018-07-08T07:00:07.232Z,27.86
2018-07-08T07:01:17.337Z,27.94
2018-07-08T07:02:27.421Z,28.03
2018-07-08T07:03:37.504Z,28.11
2018-07-08T07:04:47.597Z,28.16
2018-07-08T07:05:57.677Z,28.14
2018-07-08T07:07:07.766Z,28.12
2018-07-08T07:08:17.849Z,28.02
2018-07-08T07:09:27.682Z,27.99
2018-07-08T07:10:37.772Z,27.99
2018-07-08T07:11:47.839Z,27.94
2018-07-08T07:12:57.920Z,27.96
2018-07-08T07:14:07.736Z,27.87
2018-07-08T07:15:17.549Z,27.87
2018-07-08T07:16:27.647Z,27.83
2018-07-08T07:17:37.779Z,27.75
2018-07-08T07:18:47.850Z,27.61
2018-07-08T07:19:57.910Z,27.72
2018-07-08T07:21:07.987Z,27.71
2018-07-08T07:22:18.067Z,27.8
2018-07-08T07:23:28.196Z,27.84
2018-07-08T07:24:38.260Z,27.86
2018-07-08T07:25:48.358Z,27.99
2018-07-08T07:26:58.431Z,28.12
2018-07-08T07:28:08.492Z,28.33
2018-07-08T07:29:18.618Z,28.65
2018-07-08T07:30:28.486Z,28.82
2018-07-08T07:31:38.572Z,29.11
2018-07-08T07:32:48.656Z,29.32
2018-07-08T07:33:58.741Z,29.42
2018-07-08T07:35:08.931Z,29.7
2018-07-08T07:36:18.744Z,29.98
2018-07-08T07:37:29.169Z,30.16
2018-07-08T07:38:39.367Z,30.49
2018-07-08T07:39:49.455Z,30.7
2018-07-08T07:40:59.317Z,30.82
2018-07-08T07:42:09.136Z,30.84
2018-07-08T07:43:19.225Z,30.99
2018-07-08T07:44:28.520Z,31.06
2018-07-08T07:45:38.758Z,30.99
2018-07-08T07:46:48.834Z,31.01
2018-07-08T07:47:58.683Z,31
2018-07-08T07:49:08.225Z,30.99
2018-07-08T07:50:18.040Z,30.88
2018-07-08T07:51:28.259Z,30.77
2018-07-08T07:52:38.346Z,30.63
2018-07-08T07:53:48.435Z,30.48
2018-07-08T07:54:58.526Z,30.37
2018-07-08T07:56:08.616Z,30.19
2018-07-08T07:57:18.687Z,30.13
2018-07-08T07:58:28.768Z,30.06
2018-07-08T07:59:38.858Z,29.95
2018-07-08T08:00:48.673Z,29.75
2018-07-08T08:01:58.748Z,29.48
2018-07-08T08:03:08.832Z,29.33
2018-07-08T08:04:18.958Z,29.05
2018-07-08T08:05:29.030Z,28.88
2018-07-08T08:06:39.110Z,28.68
2018-07-08T08:07:49.214Z,28.42
2018-07-08T08:08:59.302Z,28.12
2018-07-08T08:10:09.132Z,27.91
2018-07-08T08:11:18.949Z,27.59
2018-07-08T08:12:29.046Z,27.48
2018-07-08T08:13:39.128Z,27.34
2018-07-08T08:14:49.267Z,27.06
2018-07-08T08:15:59.336Z,27.09
2018-07-08T08:17:09.144Z,26.96
2018-07-08T08:18:19.223Z,26.93
2018-07-08T08:19:28.770Z,26.81
2018-07-08T08:20:38.836Z,26.71
2018-07-08T08:21:48.929Z,26.68
2018-07-08T08:22:59.022Z,26.53
2018-07-08T08:24:09.157Z,26.44
2018-07-08T08:25:19.240Z,26.45
2018-07-08T08:26:29.480Z,26.44
2018-07-08T08:27:39.792Z,26.34
2018-07-08T08:28:49.908Z,26.3
2018-07-08T08:30:00.000Z,26.37
2018-07-08T08:31:09.846Z,26.32
2018-07-08T08:32:19.663Z,26.32
2018-07-08T08:33:29.746Z,26.34
2018-07-08T08:34:39.821Z,26.47
2018-07-08T08:35:49.908Z,26.61
2018-07-08T08:36:59.717Z,26.79
2018-07-08T08:38:09.938Z,27
2018-07-08T08:39:20.258Z,27.09
2018-07-08T08:40:30.340Z,27.24
2018-07-08T08:41:40.474Z,27.42
2018-07-08T08:42:50.303Z,27.57
2018-07-08T08:44:00.404Z,27.65
2018-07-08T08:45:10.548Z,27.86
2018-07-08T08:46:20.645Z,27.96
2018-07-08T08:47:30.787Z,28.05
2018-07-08T08:48:40.606Z,28.03
2018-07-08T08:49:50.696Z,28.14
2018-07-08T08:51:00.766Z,28.09
2018-07-08T08:52:10.870Z,27.99
2018-07-08T08:53:20.745Z,27.87
2018-07-08T08:54:30.837Z,27.83
2018-07-08T08:55:40.928Z,27.66
2018-07-08T08:56:51.005Z,27.55
2018-07-08T08:58:01.167Z,27.51
2018-07-08T08:59:11.317Z,27.46
2018-07-08T09:00:21.466Z,27.34
2018-07-08T09:01:31.573Z,27.33
2018-07-08T09:02:41.864Z,27.18
2018-07-08T09:03:51.921Z,27.06
2018-07-08T09:05:02.154Z,26.99
2018-07-08T09:06:12.337Z,26.93
2018-07-08T09:07:22.445Z,26.99
2018-07-08T09:08:32.272Z,27
2018-07-08T09:09:42.100Z,26.96
2018-07-08T09:10:52.448Z,26.87
2018-07-08T09:12:02.631Z,26.87
2018-07-08T09:13:12.769Z,26.79
2018-07-08T09:14:22.846Z,26.82
2018-07-08T09:15:32.918Z,26.76
2018-07-08T09:16:42.275Z,26.59
2018-07-08T09:17:52.379Z,26.56
2018-07-08T09:19:02.223Z,26.45
2018-07-08T09:20:12.380Z,26.44
2018-07-08T09:21:22.495Z,26.32
2018-07-08T09:22:32.587Z,26.39
2018-07-08T09:23:42.793Z,26.26
2018-07-08T09:24:53.055Z,26.41
2018-07-08T09:26:02.890Z,26.44
2018-07-08T09:27:13.015Z,26.44
2018-07-08T09:28:23.134Z,26.68
2018-07-08T09:29:33.254Z,26.78
2018-07-08T09:30:43.135Z,26.87
2018-07-08T09:31:53.284Z,27.01
2018-07-08T09:33:03.132Z,27
2018-07-08T09:34:13.252Z,27.04
2018-07-08T09:35:23.393Z,27.08
2018-07-08T09:36:33.524Z,27.18
2018-07-08T09:37:43.735Z,27.34
2018-07-08T09:38:53.966Z,27.48
2018-07-08T09:40:04.824Z,27.61
2018-07-08T09:41:14.967Z,27.61
2018-07-08T09:42:25.059Z,27.71
2018-07-08T09:43:35.160Z,27.69
2018-07-08T09:44:45.275Z,27.74
2018-07-08T09:45:55.525Z,27.79
2018-07-08T09:47:05.791Z,27.89
2018-07-08T09:48:15.885Z,27.86
2018-07-08T09:49:25.725Z,27.99
2018-07-08T09:50:35.641Z,28.05
2018-07-08T09:51:45.498Z,28.12
2018-07-08T09:52:55.343Z,28.17
2018-07-08T09:54:05.424Z,28.27
2018-07-08T09:55:15.547Z,28.49
2018-07-08T09:56:25.657Z,28.7
2018-07-08T09:57:35.756Z,28.85
2018-07-08T09:58:45.856Z,28.88
2018-07-08T09:59:55.727Z,29.03
2018-07-08T10:01:05.824Z,29.1
2018-07-08T10:02:15.904Z,29.21
2018-07-08T10:03:26.015Z,29.28
2018-07-08T10:04:35.997Z,29.23
2018-07-08T10:05:46.523Z,29.23
2018-07-08T10:06:56.615Z,29.43
2018-07-08T10:08:06.699Z,29.39
2018-07-08T10:09:16.778Z,29.36
2018-07-08T10:10:26.885Z,29.3
2018-07-08T10:11:37.202Z,29.33
2018-07-08T10:12:47.574Z,29.47
2018-07-08T10:13:58.131Z,29.48
2018-07-08T10:15:08.319Z,29.48
2018-07-08T10:16:18.616Z,29.55
2018-07-08T10:17:28.742Z,29.66
2018-07-08T10:18:39.699Z,29.75
2018-07-08T10:19:50.527Z,29.88
2018-07-08T10:21:01.866Z,30.02
2018-07-08T10:22:11.682Z,30.19
2018-07-08T10:23:21.759Z,30.4
2018-07-08T10:24:31.849Z,30.62
2018-07-08T10:25:41.963Z,30.7
2018-07-08T10:26:51.900Z,30.89
2018-07-08T10:28:01.984Z,31.25
2018-07-08T10:29:12.119Z,31.38
2018-07-08T10:30:22.375Z,31.41
2018-07-08T10:31:32.696Z,31.58
2018-07-08T10:32:42.816Z,31.71
2018-07-08T10:33:52.944Z,31.62
2018-07-08T10:35:03.061Z,31.63
2018-07-08T10:36:12.909Z,31.49
2018-07-08T10:37:23.019Z,31.56
2018-07-08T10:38:33.084Z,31.52
2018-07-08T10:39:42.943Z,31.4
2018-07-08T10:40:52.769Z,31.45
2018-07-08T10:42:02.636Z,31.49
2018-07-08T10:43:12.767Z,31.41
2018-07-08T10:44:22.935Z,31.36
2018-07-08T10:45:32.503Z,31.34
2018-07-08T10:46:42.609Z,31.26
2018-07-08T10:47:52.181Z,31.16
2018-07-08T10:49:02.281Z,31.1
2018-07-08T10:50:12.425Z,31.13
2018-07-08T10:51:22.661Z,31.21
2018-07-08T10:52:32.820Z,31.3
2018-07-08T10:53:42.914Z,31.4
2018-07-08T10:54:52.745Z,31.41
2018-07-08T10:56:02.863Z,31.53
2018-07-08T10:57:13.018Z,31.44
2018-07-08T10:58:22.896Z,31.47
2018-07-08T10:59:33.023Z,31.53
2018-07-08T11:00:43.144Z,31.63
2018-07-08T11:01:53.444Z,31.71
2018-07-08T11:03:03.648Z,31.86
2018-07-08T11:04:13.510Z,32.09
2018-07-08T11:05:23.654Z,32.3
2018-07-08T11:06:33.524Z,32.54
2018-07-08T11:07:43.657Z,32.8
2018-07-08T11:08:53.788Z,33.02
2018-07-08T11:10:03.919Z,33.02
2018-07-08T11:11:13.999Z,32.9
2018-07-08T11:12:23.820Z,32.94
2018-07-08T11:13:33.947Z,33.01
2018-07-08T11:14:44.038Z,33.03
2018-07-08T11:15:54.117Z,32.81
2018-07-08T11:17:04.233Z,32.59
2018-07-08T11:18:14.332Z,32.28
2018-07-08T11:19:24.432Z,32.25
2018-07-08T11:20:34.623Z,32.17
2018-07-08T11:21:45.089Z,32.24
2018-07-08T11:22:55.159Z,32.13
2018-07-08T11:24:04.997Z,32.27
2018-07-08T11:25:14.815Z,32.61
2018-07-08T11:26:24.928Z,33.06
2018-07-08T11:27:35.035Z,33.2
2018-07-08T11:28:45.235Z,33.02
2018-07-08T11:29:55.361Z,33.06
2018-07-08T11:31:05.533Z,32.98
2018-07-08T11:32:15.630Z,32.81
2018-07-08T11:33:25.724Z,32.65
2018-07-08T11:34:35.553Z,32.5
2018-07-08T11:35:45.390Z,32.38
2018-07-08T11:36:55.527Z,32.38
2018-07-08T11:38:05.606Z,32.46
2018-07-08T11:39:15.751Z,32.46
2018-07-08T11:40:25.854Z,32.56
2018-07-08T11:41:35.934Z,32.47
2018-07-08T11:42:45.783Z,32.49
2018-07-08T11:43:55.748Z,32.5
2018-07-08T11:45:05.309Z,32.47
2018-07-08T11:46:15.159Z,32.68
2018-07-08T11:47:25.025Z,32.75
2018-07-08T11:48:35.099Z,32.81
2018-07-08T11:49:45.242Z,32.9
2018-07-08T11:50:55.421Z,33.11
2018-07-08T11:52:05.549Z,33.24
2018-07-08T11:53:15.381Z,33.47
2018-07-08T11:54:25.593Z,33.59
2018-07-08T11:55:35.823Z,33.69
2018-07-08T11:56:45.917Z,33.84
2018-07-08T11:57:56.079Z,34.06
2018-07-08T11:59:06.180Z,34.14
2018-07-08T12:00:16.368Z,34.1
2018-07-08T12:01:26.492Z,34.15
2018-07-08T12:02:36.594Z,34.14
2018-07-08T12:03:46.699Z,34.08
2018-07-08T12:04:56.798Z,34.36
2018-07-08T12:06:06.657Z,34.33
2018-07-08T12:07:16.746Z,34.49
2018-07-08T12:08:26.598Z,34.75
2018-07-08T12:09:36.733Z,35.16
2018-07-08T12:10:46.867Z,35.11
2018-07-08T12:11:56.751Z,35.09
2018-07-08T12:13:06.886Z,34.99
2018-07-08T12:14:17.071Z,35.02
2018-07-08T12:15:27.236Z,34.99
2018-07-08T12:16:37.085Z,35.01
2018-07-08T12:17:47.222Z,35.11
2018-07-08T12:18:56.796Z,35.23
2018-07-08T12:20:06.892Z,35.46
2018-07-08T12:21:17.277Z,35.76
2018-07-08T12:22:27.361Z,36.09
2018-07-08T12:23:37.536Z,35.99
2018-07-08T12:24:47.454Z,36.01
2018-07-08T12:25:57.579Z,35.94
2018-07-08T12:27:07.676Z,35.94
2018-07-08T12:28:17.770Z,35.82
2018-07-08T12:29:27.866Z,36.01
2018-07-08T12:30:37.697Z,35.9
2018-07-08T12:31:47.321Z,35.9
2018-07-08T12:32:57.395Z,36.04
2018-07-08T12:34:07.485Z,36.32
2018-07-08T12:35:17.565Z,36.34
2018-07-08T12:36:27.661Z,36.33
2018-07-08T12:37:37.825Z,36.44
2018-07-08T12:38:47.899Z,36.7
2018-07-08T12:39:57.983Z,36.77
2018-07-08T12:41:08.056Z,36.84
2018-07-08T12:42:18.168Z,36.86
2018-07-08T12:43:28.015Z,37.3
2018-07-08T12:44:38.566Z,37.48
2018-07-08T12:45:49.444Z,37.64
2018-07-08T12:46:59.278Z,37.46
2018-07-08T12:48:09.368Z,37.8
2018-07-08T12:49:18.930Z,37.99
2018-07-08T12:50:28.741Z,37.94
2018-07-08T12:51:38.882Z,37.68
2018-07-08T12:52:48.710Z,37.69
2018-07-08T12:53:58.792Z,37.57
2018-07-08T12:55:08.619Z,37.37
2018-07-08T12:56:18.707Z,37
2018-07-08T12:57:28.796Z,36.68
2018-07-08T12:58:39.008Z,36.3
2018-07-08T12:59:48.896Z,36.08
2018-07-08T13:00:59.002Z,35.69
2018-07-08T13:02:08.834Z,35.33
2018-07-08T13:03:18.959Z,35.06
2018-07-08T13:04:28.807Z,34.78
2018-07-08T13:05:38.895Z,34.4
2018-07-08T13:06:48.851Z,34.32
2018-07-08T13:07:58.944Z,34.1
2018-07-08T13:09:09.086Z,33.73
2018-07-08T13:10:19.166Z,33.44
2018-07-08T13:11:29.317Z,33.17
2018-07-08T13:12:39.255Z,32.87
2018-07-08T13:13:49.343Z,32.69
2018-07-08T13:14:59.025Z,32.47
2018-07-08T13:16:09.111Z,32.37
2018-07-08T13:17:19.225Z,32.25
2018-07-08T13:18:29.343Z,32.16
2018-07-08T13:19:39.184Z,32.01
2018-07-08T13:20:49.382Z,31.98
2018-07-08T13:21:59.583Z,31.88
2018-07-08T13:23:09.701Z,31.87
2018-07-08T13:24:19.857Z,31.86
2018-07-08T13:25:30.021Z,32.05
2018-07-08T13:26:39.857Z,32.08
2018-07-08T13:27:49.767Z,32.19
2018-07-08T13:28:59.632Z,32.34
2018-07-08T13:30:09.720Z,32.43
2018-07-08T13:31:19.628Z,32.5
2018-07-08T13:32:30.192Z,32.62
2018-07-08T13:33:40.517Z,32.67
2018-07-08T13:34:50.431Z,32.69
2018-07-08T13:36:00.521Z,32.8
2018-07-08T13:37:10.612Z,32.9
2018-07-08T13:38:20.724Z,32.96
2018-07-08T13:39:30.857Z,33.18
2018-07-08T13:40:40.969Z,33.4
2018-07-08T13:41:51.094Z,33.61
2018-07-08T13:43:01.195Z,33.81
2018-07-08T13:44:11.319Z,34.11
2018-07-08T13:45:21.416Z,34.18
2018-07-08T13:46:31.504Z,34.36
2018-07-08T13:47:41.625Z,34.45
2018-07-08T13:48:51.710Z,34.52
2018-07-08T13:50:01.848Z,34.74
2018-07-08T13:51:12.152Z,34.96
2018-07-08T13:52:22.238Z,35.27
2018-07-08T13:53:32.390Z,35.38
2018-07-08T13:54:42.473Z,35.55
2018-07-08T13:55:52.560Z,35.65
2018-07-08T13:57:02.664Z,35.99
2018-07-08T13:58:12.767Z,36.22
2018-07-08T13:59:22.855Z,36.34
2018-07-08T14:00:32.944Z,36.32
2018-07-08T14:01:43.049Z,36.4
2018-07-08T14:02:52.865Z,36.33
2018-07-08T14:04:02.701Z,36.12
2018-07-08T14:05:12.775Z,35.9
2018-07-08T14:06:22.629Z,35.52
2018-07-08T14:07:32.471Z,35.3
2018-07-08T14:08:42.324Z,35.23
2018-07-08T14:09:52.435Z,35.13
2018-07-08T14:11:02.522Z,35.02
2018-07-08T14:12:12.629Z,35.06
2018-07-08T14:13:22.740Z,34.87
2018-07-08T14:14:32.838Z,34.86
2018-07-08T14:15:43.096Z,34.9
2018-07-08T14:16:53.213Z,34.75
2018-07-08T14:18:02.775Z,34.74
2018-07-08T14:19:12.666Z,34.79
2018-07-08T14:20:23.207Z,35.18
2018-07-08T14:21:33.334Z,35.34
2018-07-08T14:22:43.433Z,35.3
2018-07-08T14:23:53.529Z,35.08
2018-07-08T14:25:03.732Z,34.83
2018-07-08T14:26:13.811Z,34.55
2018-07-08T14:27:23.925Z,34.43
2018-07-08T14:28:33.992Z,34.1
2018-07-08T14:29:44.091Z,33.96
2018-07-08T14:30:54.258Z,33.77
2018-07-08T14:32:04.399Z,33.65
2018-07-08T14:33:14.554Z,33.52
2018-07-08T14:34:24.381Z,33.52
2018-07-08T14:35:34.488Z,33.52
2018-07-08T14:36:44.571Z,33.39
2018-07-08T14:37:54.665Z,33.31
2018-07-08T14:39:04.749Z,33.26
2018-07-08T14:40:14.599Z,33.44
2018-07-08T14:41:24.685Z,33.61
2018-07-08T14:42:34.791Z,33.69
2018-07-08T14:43:44.891Z,33.9
2018-07-08T14:44:54.975Z,34.06
2018-07-08T14:46:05.332Z,34.11
2018-07-08T14:47:15.240Z,34.19
2018-07-08T14:48:25.358Z,34.27
2018-07-08T14:49:35.552Z,34.41
2018-07-08T14:50:45.639Z,34.56
2018-07-08T14:51:55.726Z,34.78
2018-07-08T14:53:05.896Z,34.91
2018-07-08T14:54:16.080Z,35.02
2018-07-08T14:55:26.164Z,35.2
2018-07-08T14:56:36.267Z,35.33
2018-07-08T14:57:45.841Z,35.27
2018-07-08T14:58:55.976Z,35.38
2018-07-08T15:00:05.879Z,35.39
2018-07-08T15:01:15.999Z,35.3
2018-07-08T15:02:26.105Z,35.26
2018-07-08T15:03:36.244Z,35.15
2018-07-08T15:04:46.483Z,34.9
2018-07-08T15:05:56.524Z,34.46
2018-07-08T15:07:06.642Z,34.14
2018-07-08T15:08:16.744Z,34.05
2018-07-08T15:09:26.830Z,33.89
2018-07-08T15:10:36.921Z,33.61
2018-07-08T15:11:47.008Z,33.48
2018-07-08T15:12:56.838Z,33.29
2018-07-08T15:14:06.927Z,33.2
2018-07-08T15:15:17.042Z,32.96
2018-07-08T15:16:27.051Z,32.79
2018-07-08T15:17:37.157Z,32.67
2018-07-08T15:18:46.975Z,32.5
2018-07-08T15:19:57.079Z,32.35
2018-07-08T15:21:07.278Z,32.24
2018-07-08T15:22:17.590Z,32.12
2018-07-08T15:23:27.698Z,32.05
2018-07-08T15:24:37.763Z,31.91
2018-07-08T15:25:47.853Z,31.81
2018-07-08T15:26:57.975Z,31.71
2018-07-08T15:28:07.864Z,31.67
2018-07-08T15:29:17.950Z,31.56
2018-07-08T15:30:27.783Z,31.5
2018-07-08T15:31:37.872Z,31.49
2018-07-08T15:32:48.061Z,31.45
2018-07-08T15:33:58.240Z,31.37
2018-07-08T15:35:08.337Z,31.36
2018-07-08T15:36:18.381Z,31.26